createdAt,value
2023-04-08T00:00:02.172Z,7.32
2023-04-08T00:00:45.157Z,7.30
2023-04-08T00:01:27.197Z,7.27
2023-04-08T00:02:08.953Z,7.23
2023-04-08T00:02:50.724Z,7.20
2023-04-08T00:03:32.898Z,7.16
2023-04-08T00:04:14.875Z,7.13
2023-04-08T00:04:56.738Z,7.11
2023-04-08T00:05:38.397Z,7.09
2023-04-08T00:06:19.948Z,7.05
2023-04-08T00:07:01.545Z,7.08
2023-04-08T00:07:44.018Z,7.11
2023-04-08T00:08:25.765Z,7.15
2023-04-08T00:09:07.433Z,7.18
2023-04-08T00:09:49.274Z,7.08
2023-04-08T00:10:30.992Z,7.33
2023-04-08T00:11:12.569Z,7.34
2023-04-08T00:11:54.336Z,7.26
2023-04-08T00:12:36.172Z,7.43
2023-04-08T00:13:17.882Z,7.28
2023-04-08T00:14:00.209Z,7.44
2023-04-08T00:14:41.775Z,7.43
2023-04-08T00:15:23.499Z,7.38
2023-04-08T00:16:05.239Z,7.39
2023-04-08T00:16:46.885Z,7.38
2023-04-08T00:17:28.624Z,7.37
2023-04-08T00:18:10.407Z,7.31
2023-04-08T00:18:52.313Z,7.34
2023-04-08T00:19:36.129Z,7.38
2023-04-08T00:20:17.964Z,7.40
2023-04-08T00:21:00.333Z,7.43
2023-04-08T00:21:41.905Z,7.40
2023-04-08T00:22:23.470Z,7.47
2023-04-08T00:23:05.115Z,7.50
2023-04-08T00:23:47.488Z,7.42
2023-04-08T00:24:29.081Z,7.54
2023-04-08T00:25:10.807Z,7.41
2023-04-08T00:25:52.419Z,7.58
2023-04-08T00:26:33.985Z,7.61
2023-04-08T00:27:15.821Z,7.48
2023-04-08T00:27:57.393Z,7.62
2023-04-08T00:28:39.060Z,7.64
2023-04-08T00:29:20.744Z,7.66
2023-04-08T00:30:03.499Z,7.57
2023-04-08T00:30:45.714Z,7.67
2023-04-08T00:31:27.436Z,7.72
2023-04-08T00:32:09.085Z,7.59
2023-04-08T00:32:50.736Z,7.68
2023-04-08T00:33:32.448Z,7.72
2023-04-08T00:34:14.080Z,7.72
2023-04-08T00:34:55.760Z,7.62
2023-04-08T00:35:37.368Z,7.72
2023-04-08T00:36:19.181Z,7.72
2023-04-08T00:37:01.231Z,7.72
2023-04-08T00:37:42.815Z,7.74
2023-04-08T00:38:24.415Z,7.66
2023-04-08T00:39:06.882Z,7.75
2023-04-08T00:39:48.667Z,7.83
2023-04-08T00:40:30.316Z,7.88
2023-04-08T00:41:12.491Z,7.92
2023-04-08T00:41:54.151Z,7.97
2023-04-08T00:42:35.884Z,8.03
2023-04-08T00:43:20.719Z,8.06
2023-04-08T00:44:02.716Z,8.05
2023-04-08T00:44:44.390Z,8.10
2023-04-08T00:45:26.380Z,8.12
2023-04-08T00:46:09.374Z,7.93
2023-04-08T00:46:51.006Z,8.13
2023-04-08T00:47:32.760Z,8.16
2023-04-08T00:48:14.425Z,8.19
2023-04-08T00:48:56.161Z,8.18
2023-04-08T00:49:37.741Z,8.16
2023-04-08T00:50:20.242Z,8.13
2023-04-08T00:51:02.139Z,8.08
2023-04-08T00:51:43.706Z,8.02
2023-04-08T00:52:25.358Z,7.94
2023-04-08T00:53:07.294Z,7.98
2023-04-08T00:53:48.885Z,7.96
2023-04-08T00:54:31.598Z,7.96
2023-04-08T00:55:13.254Z,7.93
2023-04-08T00:55:54.887Z,7.78
2023-04-08T00:56:37.518Z,8.01
2023-04-08T00:57:19.096Z,8.05
2023-04-08T00:58:00.917Z,8.07
2023-04-08T00:58:43.172Z,8.07
2023-04-08T00:59:24.749Z,8.08
2023-04-08T01:00:06.996Z,8.10
2023-04-08T01:00:59.123Z,8.02
2023-04-08T01:01:49.876Z,7.97
2023-04-08T01:02:40.465Z,8.05
2023-04-08T01:04:01.830Z,7.98
2023-04-08T01:05:01.674Z,7.92
2023-04-08T01:06:05.555Z,7.96
2023-04-08T01:06:55.866Z,7.93
2023-04-08T01:07:41.424Z,8.00
2023-04-08T01:08:26.528Z,8.06
2023-04-08T01:09:10.088Z,8.00
2023-04-08T01:09:54.818Z,8.12
2023-04-08T01:10:38.909Z,8.15
2023-04-08T01:11:21.449Z,8.07
2023-04-08T01:12:08.107Z,8.19
2023-04-08T01:13:04.988Z,8.21
2023-04-08T01:13:49.501Z,8.14
2023-04-08T01:14:34.868Z,8.21
2023-04-08T01:15:17.558Z,8.15
2023-04-08T01:15:59.623Z,8.12
2023-04-08T01:16:43.511Z,8.26
2023-04-08T01:17:25.496Z,8.30
2023-04-08T01:18:09.591Z,8.15
2023-04-08T01:18:53.284Z,8.35
2023-04-08T01:19:39.647Z,8.30
2023-04-08T01:20:24.762Z,8.32
2023-04-08T01:21:07.437Z,8.29
2023-04-08T01:21:49.640Z,8.13
2023-04-08T01:22:46.501Z,8.16
2023-04-08T01:23:37.942Z,8.15
2023-04-08T01:24:33.696Z,8.09
2023-04-08T01:25:18.681Z,8.07
2023-04-08T01:26:00.942Z,8.00
2023-04-08T01:26:43.627Z,8.02
2023-04-08T01:27:26.715Z,8.11
2023-04-08T01:28:12.322Z,8.11
2023-04-08T01:28:57.567Z,8.11
2023-04-08T01:29:40.331Z,8.09
2023-04-08T01:30:24.589Z,8.05
2023-04-08T01:31:07.597Z,8.12
2023-04-08T01:31:50.125Z,8.10
2023-04-08T01:32:34.125Z,7.98
2023-04-08T01:33:17.560Z,8.13
2023-04-08T01:34:01.287Z,8.13
2023-04-08T01:34:44.248Z,8.11
2023-04-08T01:35:26.310Z,8.11
2023-04-08T01:36:08.941Z,8.04
2023-04-08T01:36:53.858Z,8.11
2023-04-08T01:37:36.993Z,8.03
2023-04-08T01:38:22.598Z,8.09
2023-04-08T01:39:05.828Z,8.06
2023-04-08T01:39:49.774Z,8.12
2023-04-08T01:40:34.143Z,8.06
2023-04-08T01:41:19.695Z,8.02
2023-04-08T01:42:02.540Z,8.08
2023-04-08T01:42:45.744Z,8.13
2023-04-08T01:43:28.532Z,8.20
2023-04-08T01:44:11.423Z,8.07
2023-04-08T01:44:57.306Z,8.18
2023-04-08T01:45:38.937Z,8.15
2023-04-08T01:46:21.813Z,8.04
2023-04-08T01:47:03.812Z,8.13
2023-04-08T01:47:48.106Z,8.13
2023-04-08T01:48:30.849Z,8.11
2023-04-08T01:49:12.701Z,8.11
2023-04-08T01:49:55.164Z,8.15
2023-04-08T01:50:37.873Z,8.14
2023-04-08T01:51:21.127Z,8.12
2023-04-08T01:52:05.132Z,8.11
2023-04-08T01:52:49.448Z,8.11
2023-04-08T01:53:32.180Z,7.95
2023-04-08T01:54:14.809Z,8.04
2023-04-08T01:54:56.951Z,7.98
2023-04-08T01:55:40.985Z,7.93
2023-04-08T01:56:23.642Z,7.89
2023-04-08T01:57:08.804Z,7.85
2023-04-08T01:57:52.637Z,7.83
2023-04-08T01:58:42.997Z,7.87
2023-04-08T01:59:31.413Z,7.89
2023-04-08T02:00:14.400Z,7.93
2023-04-08T02:01:02.473Z,7.87
2023-04-08T02:01:45.417Z,7.98
2023-04-08T02:02:28.246Z,7.99
2023-04-08T02:03:12.960Z,8.01
2023-04-08T02:03:57.565Z,8.02
2023-04-08T02:04:39.552Z,8.01
2023-04-08T02:05:21.454Z,8.05
2023-04-08T02:06:03.067Z,8.00
2023-04-08T02:06:44.953Z,7.99
2023-04-08T02:07:26.657Z,8.06
2023-04-08T02:08:08.828Z,8.10
2023-04-08T02:08:50.676Z,8.13
2023-04-08T02:09:32.465Z,8.11
2023-04-08T02:10:14.113Z,8.12
2023-04-08T02:10:56.001Z,8.05
2023-04-08T02:11:37.579Z,8.09
2023-04-08T02:12:19.704Z,8.06
2023-04-08T02:13:03.349Z,8.04
2023-04-08T02:13:45.572Z,7.93
2023-04-08T02:14:28.384Z,8.01
2023-04-08T02:15:12.659Z,7.97
2023-04-08T02:16:01.284Z,7.97
2023-04-08T02:16:52.982Z,8.01
2023-04-08T02:17:43.277Z,8.01
2023-04-08T02:18:28.290Z,8.04
2023-04-08T02:19:23.708Z,8.07
2023-04-08T02:20:17.726Z,7.97
2023-04-08T02:21:10.147Z,8.12
2023-04-08T02:22:01.251Z,8.13
2023-04-08T02:22:57.828Z,8.15
2023-04-08T02:23:41.483Z,8.17
2023-04-08T02:24:23.863Z,7.94
2023-04-08T02:25:11.055Z,8.15
2023-04-08T02:25:55.442Z,8.23
2023-04-08T02:26:43.749Z,8.25
2023-04-08T02:27:27.473Z,8.19
2023-04-08T02:28:11.693Z,8.29
2023-04-08T02:28:55.065Z,8.32
2023-04-08T02:29:41.168Z,8.35
2023-04-08T02:30:25.811Z,8.33
2023-04-08T02:31:13.475Z,8.39
2023-04-08T02:32:02.050Z,8.35
2023-04-08T02:32:45.713Z,8.36
2023-04-08T02:33:28.489Z,8.40
2023-04-08T02:34:11.741Z,8.41
2023-04-08T02:34:54.522Z,8.36
2023-04-08T02:35:37.979Z,8.20
2023-04-08T02:36:22.896Z,8.11
2023-04-08T02:37:05.645Z,8.12
2023-04-08T02:37:50.370Z,8.07
2023-04-08T02:38:32.353Z,8.04
2023-04-08T02:39:14.084Z,7.99
2023-04-08T02:39:55.940Z,7.87
2023-04-08T02:40:37.822Z,7.89
2023-04-08T02:41:19.428Z,7.86
2023-04-08T02:42:01.234Z,7.78
2023-04-08T02:42:42.839Z,7.80
2023-04-08T02:43:31.651Z,7.84
2023-04-08T02:44:13.337Z,7.86
2023-04-08T02:44:57.324Z,7.87
2023-04-08T02:45:41.739Z,7.87
2023-04-08T02:46:24.189Z,7.67
2023-04-08T02:47:05.950Z,7.90
2023-04-08T02:47:50.040Z,7.90
2023-04-08T02:48:31.813Z,7.89
2023-04-08T02:49:13.395Z,7.91
2023-04-08T02:49:55.285Z,7.88
2023-04-08T02:50:37.230Z,7.90
2023-04-08T02:51:18.901Z,7.87
2023-04-08T02:52:00.536Z,7.88
2023-04-08T02:52:43.727Z,7.88
2023-04-08T02:53:25.599Z,7.87
2023-04-08T02:54:07.306Z,7.82
2023-04-08T02:54:48.988Z,7.81
2023-04-08T02:55:30.915Z,7.70
2023-04-08T02:56:12.671Z,7.73
2023-04-08T02:56:54.239Z,7.63
2023-04-08T02:57:37.270Z,7.67
2023-04-08T02:58:19.169Z,7.52
2023-04-08T02:59:00.793Z,7.55
2023-04-08T02:59:42.457Z,7.57
2023-04-08T03:00:24.065Z,7.54
2023-04-08T03:01:05.949Z,7.49
2023-04-08T03:01:47.535Z,7.50
2023-04-08T03:02:29.293Z,7.32
2023-04-08T03:03:11.080Z,7.47
2023-04-08T03:03:52.923Z,7.46
2023-04-08T03:04:34.789Z,7.46
2023-04-08T03:05:16.904Z,7.33
2023-04-08T03:05:59.070Z,7.40
2023-04-08T03:06:40.781Z,7.44
2023-04-08T03:07:22.549Z,7.35
2023-04-08T03:08:04.181Z,7.44
2023-04-08T03:08:45.790Z,7.51
2023-04-08T03:09:27.358Z,7.50
2023-04-08T03:10:09.434Z,7.51
2023-04-08T03:10:51.043Z,7.56
2023-04-08T03:11:33.067Z,7.56
2023-04-08T03:12:14.671Z,7.27
2023-04-08T03:12:56.298Z,7.56
2023-04-08T03:13:38.147Z,7.56
2023-04-08T03:14:20.697Z,7.54
2023-04-08T03:15:03.383Z,7.48
2023-04-08T03:15:45.291Z,7.47
2023-04-08T03:16:27.040Z,7.39
2023-04-08T03:17:08.654Z,7.42
2023-04-08T03:17:50.531Z,7.17
2023-04-08T03:18:32.124Z,7.40
2023-04-08T03:19:13.744Z,7.40
2023-04-08T03:19:55.336Z,7.38
2023-04-08T03:20:36.942Z,7.41
2023-04-08T03:21:18.716Z,7.28
2023-04-08T03:22:00.480Z,7.34
2023-04-08T03:22:42.091Z,7.29
2023-04-08T03:23:23.680Z,7.24
2023-04-08T03:24:05.530Z,7.08
2023-04-08T03:24:47.168Z,7.16
2023-04-08T03:25:29.234Z,7.14
2023-04-08T03:26:11.383Z,7.11
2023-04-08T03:26:52.970Z,7.06
2023-04-08T03:27:34.622Z,7.14
2023-04-08T03:28:16.213Z,7.11
2023-04-08T03:28:58.106Z,7.12
2023-04-08T03:29:39.884Z,6.98
2023-04-08T03:30:21.629Z,7.03
2023-04-08T03:31:04.737Z,7.06
2023-04-08T03:31:46.346Z,7.05
2023-04-08T03:32:28.186Z,7.02
2023-04-08T03:33:09.808Z,6.88
2023-04-08T03:33:51.541Z,6.94
2023-04-08T03:34:36.917Z,7.00
2023-04-08T03:35:18.530Z,6.85
2023-04-08T03:36:00.309Z,6.98
2023-04-08T03:36:41.919Z,7.07
2023-04-08T03:37:23.584Z,7.08
2023-04-08T03:38:05.560Z,7.08
2023-04-08T03:38:47.267Z,7.05
2023-04-08T03:39:28.920Z,7.06
2023-04-08T03:40:11.296Z,7.04
2023-04-08T03:40:52.854Z,7.01
2023-04-08T03:41:34.432Z,6.98
2023-04-08T03:42:16.125Z,6.95
2023-04-08T03:42:57.766Z,6.91
2023-04-08T03:43:39.411Z,6.85
2023-04-08T03:44:21.037Z,6.70
2023-04-08T03:45:02.676Z,6.76
2023-04-08T03:45:44.252Z,6.58
2023-04-08T03:46:25.925Z,6.68
2023-04-08T03:47:07.793Z,6.66
2023-04-08T03:47:49.482Z,6.66
2023-04-08T03:48:32.051Z,6.65
2023-04-08T03:49:13.669Z,6.64
2023-04-08T03:49:55.313Z,6.63
2023-04-08T03:50:36.912Z,6.60
2023-04-08T03:51:18.513Z,6.56
2023-04-08T03:52:00.207Z,6.38
2023-04-08T03:52:41.817Z,6.34
2023-04-08T03:53:23.510Z,6.40
2023-04-08T03:54:05.520Z,6.51
2023-04-08T03:54:47.154Z,6.55
2023-04-08T03:55:29.103Z,6.55
2023-04-08T03:56:10.747Z,6.55
2023-04-08T03:56:52.283Z,6.45
2023-04-08T03:57:33.859Z,6.52
2023-04-08T03:58:15.405Z,6.49
2023-04-08T03:58:57.049Z,6.47
2023-04-08T03:59:40.939Z,6.28
2023-04-08T04:00:22.614Z,6.38
2023-04-08T04:01:04.353Z,6.26
2023-04-08T04:01:46.409Z,6.29
2023-04-08T04:02:28.393Z,6.26
2023-04-08T04:03:12.957Z,6.21
2023-04-08T04:03:54.916Z,6.02
2023-04-08T04:04:37.099Z,6.16
2023-04-08T04:05:18.943Z,6.12
2023-04-08T04:06:00.673Z,6.11
2023-04-08T04:06:42.494Z,6.08
2023-04-08T04:07:24.048Z,5.97
2023-04-08T04:08:06.152Z,6.07
2023-04-08T04:08:48.065Z,6.04
2023-04-08T04:09:29.889Z,6.04
2023-04-08T04:10:11.855Z,5.90
2023-04-08T04:10:53.483Z,6.03
2023-04-08T04:11:35.874Z,6.01
2023-04-08T04:12:17.467Z,5.97
2023-04-08T04:12:59.123Z,5.76
2023-04-08T04:13:40.730Z,5.95
2023-04-08T04:14:22.276Z,5.95
2023-04-08T04:15:04.626Z,5.85
2023-04-08T04:15:46.319Z,5.92
2023-04-08T04:16:27.973Z,5.91
2023-04-08T04:17:09.533Z,5.91
2023-04-08T04:17:51.149Z,5.91
2023-04-08T04:18:32.791Z,5.78
2023-04-08T04:19:14.361Z,5.90
2023-04-08T04:19:56.307Z,5.82
2023-04-08T04:20:44.064Z,5.90
2023-04-08T04:21:25.648Z,5.88
2023-04-08T04:22:07.306Z,5.88
2023-04-08T04:22:48.934Z,5.77
2023-04-08T04:23:30.564Z,5.89
2023-04-08T04:24:13.419Z,5.90
2023-04-08T04:24:55.056Z,5.90
2023-04-08T04:25:36.803Z,5.89
2023-04-08T04:26:18.748Z,5.82
2023-04-08T04:27:00.361Z,5.86
2023-04-08T04:27:41.967Z,5.84
2023-04-08T04:28:23.566Z,5.67
2023-04-08T04:29:05.213Z,5.75
2023-04-08T04:29:46.753Z,5.74
2023-04-08T04:30:28.575Z,5.73
2023-04-08T04:31:26.276Z,5.75
2023-04-08T04:32:08.665Z,5.75
2023-04-08T04:32:50.315Z,5.59
2023-04-08T04:33:31.966Z,5.77
2023-04-08T04:34:13.692Z,5.77
2023-04-08T04:34:55.305Z,5.77
2023-04-08T04:35:36.996Z,5.77
2023-04-08T04:36:19.546Z,5.68
2023-04-08T04:37:01.307Z,5.79
2023-04-08T04:37:43.090Z,5.80
2023-04-08T04:38:24.718Z,5.82
2023-04-08T04:39:06.300Z,5.83
2023-04-08T04:39:47.973Z,5.81
2023-04-08T04:40:29.538Z,5.82
2023-04-08T04:41:11.676Z,5.68
2023-04-08T04:41:53.229Z,5.62
2023-04-08T04:42:34.932Z,5.72
2023-04-08T04:43:16.573Z,5.76
2023-04-08T04:43:58.198Z,5.75
2023-04-08T04:44:39.859Z,5.82
2023-04-08T04:45:21.441Z,5.83
2023-04-08T04:46:03.939Z,5.86
2023-04-08T04:46:45.603Z,5.85
2023-04-08T04:47:27.223Z,5.87
2023-04-08T04:48:08.921Z,5.86
2023-04-08T04:48:51.500Z,5.87
2023-04-08T04:49:33.323Z,5.87
2023-04-08T04:50:14.875Z,5.86
2023-04-08T04:50:57.577Z,5.84
2023-04-08T04:51:39.172Z,5.86
2023-04-08T04:52:20.833Z,5.84
2023-04-08T04:53:02.507Z,5.83
2023-04-08T04:53:44.335Z,5.81
2023-04-08T04:54:25.984Z,5.80
2023-04-08T04:55:08.021Z,5.80
2023-04-08T04:55:51.241Z,5.78
2023-04-08T04:56:32.978Z,5.71
2023-04-08T04:57:14.534Z,5.77
2023-04-08T04:57:56.207Z,5.71
2023-04-08T04:58:37.764Z,5.71
2023-04-08T04:59:19.325Z,5.56
2023-04-08T05:00:02.282Z,5.71
2023-04-08T05:00:46.611Z,5.78
2023-04-08T05:01:29.109Z,5.80
2023-04-08T05:02:10.920Z,5.77
2023-04-08T05:02:52.829Z,5.83
2023-04-08T05:03:34.587Z,5.85
2023-04-08T05:04:16.444Z,5.86
2023-04-08T05:04:58.175Z,5.87
2023-04-08T05:05:40.181Z,5.82
2023-04-08T05:06:23.832Z,5.91
2023-04-08T05:07:05.434Z,5.82
2023-04-08T05:07:47.042Z,5.89
2023-04-08T05:08:28.658Z,5.87
2023-04-08T05:09:10.271Z,5.85
2023-04-08T05:09:51.875Z,5.78
2023-04-08T05:10:33.422Z,5.79
2023-04-08T05:11:16.850Z,5.63
2023-04-08T05:11:58.563Z,5.76
2023-04-08T05:12:40.346Z,5.78
2023-04-08T05:13:22.227Z,5.80
2023-04-08T05:14:03.854Z,5.84
2023-04-08T05:14:46.224Z,5.85
2023-04-08T05:15:27.782Z,5.86
2023-04-08T05:16:09.499Z,5.88
2023-04-08T05:16:51.072Z,5.91
2023-04-08T05:17:32.661Z,5.93
2023-04-08T05:18:14.348Z,5.95
2023-04-08T05:18:55.937Z,5.98
2023-04-08T05:19:37.507Z,6.01
2023-04-08T05:20:19.252Z,6.04
2023-04-08T05:21:00.843Z,6.03
2023-04-08T05:21:42.400Z,6.04
2023-04-08T05:22:23.974Z,5.40
2023-04-08T05:23:05.682Z,6.12
2023-04-08T05:23:47.347Z,6.13
2023-04-08T05:24:28.991Z,6.11
2023-04-08T05:25:11.509Z,6.17
2023-04-08T05:25:53.224Z,6.17
2023-04-08T05:26:34.859Z,6.23
2023-04-08T05:27:16.637Z,6.19
2023-04-08T05:27:58.264Z,6.22
2023-04-08T05:28:39.838Z,6.29
2023-04-08T05:29:21.887Z,6.30
2023-04-08T05:30:04.194Z,6.32
2023-04-08T05:30:52.781Z,6.20
2023-04-08T05:31:34.416Z,6.25
2023-04-08T05:32:16.974Z,6.27
2023-04-08T05:33:00.537Z,6.26
2023-04-08T05:33:42.447Z,6.35
2023-04-08T05:34:24.192Z,6.08
2023-04-08T05:35:06.262Z,6.39
2023-04-08T05:35:47.829Z,6.40
2023-04-08T05:36:29.452Z,6.42
2023-04-08T05:37:11.283Z,6.36
2023-04-08T05:37:52.846Z,6.40
2023-04-08T05:38:34.631Z,6.42
2023-04-08T05:39:16.229Z,6.49
2023-04-08T05:39:57.806Z,6.46
2023-04-08T05:40:39.430Z,6.41
2023-04-08T05:41:21.444Z,6.55
2023-04-08T05:42:03.205Z,6.55
2023-04-08T05:42:45.237Z,6.58
2023-04-08T05:43:27.032Z,6.60
2023-04-08T05:44:08.629Z,6.63
2023-04-08T05:44:50.262Z,6.56
2023-04-08T05:45:31.837Z,6.65
2023-04-08T05:46:13.408Z,6.65
2023-04-08T05:46:55.806Z,6.66
2023-04-08T05:47:37.481Z,6.67
2023-04-08T05:48:19.300Z,6.68
2023-04-08T05:49:00.926Z,6.72
2023-04-08T05:49:42.566Z,6.67
2023-04-08T05:50:24.179Z,6.62
2023-04-08T05:51:05.881Z,6.72
2023-04-08T05:51:47.468Z,6.70
2023-04-08T05:52:29.026Z,6.70
2023-04-08T05:53:10.818Z,6.67
2023-04-08T05:53:52.405Z,6.59
2023-04-08T05:54:33.990Z,6.59
2023-04-08T05:55:15.678Z,6.43
2023-04-08T05:55:57.302Z,6.40
2023-04-08T05:56:38.902Z,6.50
2023-04-08T05:57:20.505Z,6.38
2023-04-08T05:58:02.049Z,6.45
2023-04-08T05:58:43.653Z,6.42
2023-04-08T05:59:25.236Z,6.36
2023-04-08T06:00:08.772Z,6.31
2023-04-08T06:00:51.589Z,6.39
2023-04-08T06:01:33.265Z,6.39
2023-04-08T06:02:14.931Z,6.40
2023-04-08T06:02:56.957Z,6.41
2023-04-08T06:03:39.422Z,6.41
2023-04-08T06:04:21.341Z,6.42
2023-04-08T06:05:03.912Z,6.38
2023-04-08T06:05:45.690Z,6.39
2023-04-08T06:06:27.328Z,6.40
2023-04-08T06:07:08.961Z,6.43
2023-04-08T06:07:50.557Z,6.38
2023-04-08T06:08:32.224Z,6.52
2023-04-08T06:09:13.801Z,6.60
2023-04-08T06:09:55.753Z,6.53
2023-04-08T06:10:37.392Z,6.60
2023-04-08T06:11:19.062Z,6.76
2023-04-08T06:12:00.645Z,6.77
2023-04-08T06:12:42.286Z,6.88
2023-04-08T06:13:25.544Z,6.94
2023-04-08T06:14:07.200Z,6.98
2023-04-08T06:14:53.309Z,6.98
2023-04-08T06:15:34.905Z,7.02
2023-04-08T06:16:20.332Z,7.06
2023-04-08T06:17:02.546Z,7.08
2023-04-08T06:17:44.328Z,7.08
2023-04-08T06:18:26.032Z,7.13
2023-04-08T06:19:07.615Z,7.18
2023-04-08T06:19:49.173Z,7.22
2023-04-08T06:20:30.914Z,7.22
2023-04-08T06:21:12.657Z,7.23
2023-04-08T06:21:58.783Z,7.13
2023-04-08T06:22:40.392Z,7.12
2023-04-08T06:23:22.396Z,7.26
2023-04-08T06:24:04.027Z,7.28
2023-04-08T06:24:47.570Z,7.28
2023-04-08T06:25:29.132Z,7.29
2023-04-08T06:26:11.082Z,7.25
2023-04-08T06:26:53.673Z,7.25
2023-04-08T06:27:35.634Z,7.28
2023-04-08T06:28:17.253Z,7.33
2023-04-08T06:28:58.851Z,7.27
2023-04-08T06:29:42.740Z,7.34
2023-04-08T06:30:24.634Z,7.31
2023-04-08T06:31:06.297Z,7.36
2023-04-08T06:31:48.022Z,7.40
2023-04-08T06:32:29.722Z,7.44
2023-04-08T06:33:11.407Z,7.50
2023-04-08T06:33:53.007Z,7.60
2023-04-08T06:34:35.607Z,7.52
2023-04-08T06:35:17.357Z,7.86
2023-04-08T06:36:06.245Z,8.11
2023-04-08T06:36:48.397Z,8.14
2023-04-08T06:37:30.150Z,8.26
2023-04-08T06:38:11.866Z,8.23
2023-04-08T06:38:53.397Z,8.23
2023-04-08T06:39:35.050Z,8.21
2023-04-08T06:40:16.657Z,8.32
2023-04-08T06:41:05.552Z,8.35
2023-04-08T06:41:47.160Z,8.52
2023-04-08T06:42:44.463Z,8.57
2023-04-08T06:43:44.501Z,8.71
2023-04-08T06:44:26.063Z,8.78
2023-04-08T06:45:08.062Z,8.78
2023-04-08T06:45:50.072Z,8.91
2023-04-08T06:46:31.668Z,8.97
2023-04-08T06:47:13.310Z,8.94
2023-04-08T06:47:56.574Z,8.93
2023-04-08T06:48:39.033Z,8.82
2023-04-08T06:49:20.723Z,8.84
2023-04-08T06:50:02.586Z,8.93
2023-04-08T06:50:44.118Z,8.95
2023-04-08T06:51:25.789Z,9.14
2023-04-08T06:52:08.233Z,9.22
2023-04-08T06:52:49.951Z,9.10
2023-04-08T06:53:33.303Z,9.34
2023-04-08T06:54:14.939Z,9.34
2023-04-08T06:54:57.069Z,8.97
2023-04-08T06:55:38.637Z,9.33
2023-04-08T06:56:22.510Z,9.39
2023-04-08T06:57:04.296Z,9.40
2023-04-08T06:57:45.907Z,9.38
2023-04-08T06:58:27.563Z,9.40
2023-04-08T06:59:09.317Z,9.47
2023-04-08T06:59:51.048Z,9.35
2023-04-08T07:00:32.766Z,9.55
2023-04-08T07:01:16.351Z,9.56
2023-04-08T07:01:58.245Z,9.59
2023-04-08T07:02:39.999Z,9.61
2023-04-08T07:03:22.105Z,9.61
2023-04-08T07:04:04.177Z,9.64
2023-04-08T07:04:46.869Z,9.51
2023-04-08T07:05:28.569Z,9.56
2023-04-08T07:06:10.368Z,9.60
2023-04-08T07:06:51.930Z,9.70
2023-04-08T07:07:33.513Z,9.72
2023-04-08T07:08:15.166Z,9.71
2023-04-08T07:08:56.713Z,9.79
2023-04-08T07:09:38.373Z,9.83
2023-04-08T07:10:20.286Z,9.87
2023-04-08T07:11:02.483Z,9.82
2023-04-08T07:11:44.467Z,9.85
2023-04-08T07:12:26.120Z,9.94
2023-04-08T07:13:07.783Z,9.90
2023-04-08T07:13:49.437Z,9.95
2023-04-08T07:14:31.170Z,10.05
2023-04-08T07:15:12.764Z,10.05
2023-04-08T07:15:54.354Z,10.12
2023-04-08T07:16:36.010Z,10.16
2023-04-08T07:17:17.648Z,9.90
2023-04-08T07:17:59.791Z,10.21
2023-04-08T07:18:42.542Z,10.24
2023-04-08T07:19:24.572Z,10.30
2023-04-08T07:20:07.194Z,10.48
2023-04-08T07:20:54.936Z,10.54
2023-04-08T07:21:36.637Z,10.68
2023-04-08T07:22:18.489Z,10.74
2023-04-08T07:23:00.251Z,10.75
2023-04-08T07:23:41.821Z,10.77
2023-04-08T07:24:23.869Z,10.84
2023-04-08T07:25:06.124Z,10.85
2023-04-08T07:25:48.232Z,10.88
2023-04-08T07:26:29.892Z,10.94
2023-04-08T07:27:11.501Z,10.98
2023-04-08T07:27:53.113Z,11.05
2023-04-08T07:28:34.681Z,11.06
2023-04-08T07:29:16.627Z,11.13
2023-04-08T07:29:58.285Z,11.10
2023-04-08T07:30:39.976Z,11.26
2023-04-08T07:31:21.960Z,11.28
2023-04-08T07:32:03.715Z,11.35
2023-04-08T07:32:45.561Z,11.37
2023-04-08T07:33:27.234Z,11.35
2023-04-08T07:34:08.946Z,11.41
2023-04-08T07:34:50.962Z,11.40
2023-04-08T07:35:33.832Z,11.53
2023-04-08T07:36:15.642Z,11.55
2023-04-08T07:36:57.385Z,11.64
2023-04-08T07:37:38.968Z,11.56
2023-04-08T07:38:20.574Z,11.72
2023-04-08T07:39:02.579Z,11.75
2023-04-08T07:39:44.153Z,11.77
2023-04-08T07:40:26.144Z,11.71
2023-04-08T07:41:07.944Z,11.82
2023-04-08T07:41:49.612Z,11.85
2023-04-08T07:42:31.270Z,11.86
2023-04-08T07:43:12.888Z,11.72
2023-04-08T07:43:54.480Z,11.63
2023-04-08T07:44:36.273Z,11.61
2023-04-08T07:45:17.965Z,11.44
2023-04-08T07:46:03.175Z,11.37
2023-04-08T07:46:46.226Z,11.30
2023-04-08T07:47:28.141Z,11.28
2023-04-08T07:48:09.886Z,11.29
2023-04-08T07:48:52.134Z,11.32
2023-04-08T07:49:33.839Z,11.34
2023-04-08T07:50:15.384Z,11.37
2023-04-08T07:51:08.914Z,11.27
2023-04-08T07:51:53.050Z,11.25
2023-04-08T07:52:34.847Z,11.25
2023-04-08T07:53:16.481Z,11.03
2023-04-08T07:53:58.147Z,11.37
2023-04-08T07:54:39.737Z,11.60
2023-04-08T07:55:21.422Z,11.77
2023-04-08T07:56:05.980Z,11.96
2023-04-08T07:56:47.625Z,12.14
2023-04-08T07:57:29.275Z,12.25
2023-04-08T07:58:11.230Z,12.39
2023-04-08T07:58:54.195Z,12.49
2023-04-08T07:59:36.141Z,12.58
2023-04-08T08:00:21.620Z,12.59
2023-04-08T08:01:03.628Z,12.77
2023-04-08T08:01:46.821Z,12.73
2023-04-08T08:02:28.654Z,12.84
2023-04-08T08:03:10.487Z,12.77
2023-04-08T08:03:53.986Z,12.78
2023-04-08T08:04:36.260Z,12.70
2023-04-08T08:05:18.135Z,12.81
2023-04-08T08:05:59.799Z,12.77
2023-04-08T08:06:41.442Z,12.79
2023-04-08T08:07:23.047Z,12.76
2023-04-08T08:08:04.998Z,12.66
2023-04-08T08:08:46.844Z,12.38
2023-04-08T08:09:29.654Z,12.66
2023-04-08T08:10:12.164Z,12.66
2023-04-08T08:10:53.822Z,12.68
2023-04-08T08:11:35.438Z,12.71
2023-04-08T08:12:17.037Z,12.76
2023-04-08T08:12:58.680Z,12.81
2023-04-08T08:13:40.436Z,12.86
2023-04-08T08:14:22.178Z,12.93
2023-04-08T08:15:04.321Z,12.97
2023-04-08T08:15:46.037Z,13.07
2023-04-08T08:16:31.969Z,13.20
2023-04-08T08:17:14.391Z,13.28
2023-04-08T08:17:56.095Z,13.27
2023-04-08T08:18:39.899Z,13.24
2023-04-08T08:19:21.526Z,13.36
2023-04-08T08:20:04.824Z,13.46
2023-04-08T08:20:46.399Z,13.50
2023-04-08T08:21:28.003Z,13.55
2023-04-08T08:22:11.738Z,13.61
2023-04-08T08:22:57.526Z,13.41
2023-04-08T08:23:39.610Z,13.16
2023-04-08T08:24:21.596Z,12.86
2023-04-08T08:25:04.560Z,12.64
2023-04-08T08:25:46.480Z,12.59
2023-04-08T08:26:28.673Z,12.60
2023-04-08T08:27:11.225Z,12.51
2023-04-08T08:27:52.817Z,12.50
2023-04-08T08:28:34.386Z,12.34
2023-04-08T08:29:15.997Z,12.15
2023-04-08T08:29:58.446Z,12.17
2023-04-08T08:30:40.075Z,12.23
2023-04-08T08:31:21.736Z,12.34
2023-04-08T08:32:03.763Z,12.45
2023-04-08T08:32:45.657Z,12.76
2023-04-08T08:33:27.365Z,12.89
2023-04-08T08:34:09.035Z,13.18
2023-04-08T08:34:50.800Z,13.45
2023-04-08T08:35:32.418Z,13.60
2023-04-08T08:36:14.161Z,13.71
2023-04-08T08:36:55.936Z,13.83
2023-04-08T08:37:37.646Z,13.99
2023-04-08T08:38:19.822Z,14.03
2023-04-08T08:39:01.934Z,14.00
2023-04-08T08:39:44.037Z,13.91
2023-04-08T08:40:25.712Z,14.01
2023-04-08T08:41:07.264Z,13.94
2023-04-08T08:41:49.068Z,13.79
2023-04-08T08:42:31.450Z,13.71
2023-04-08T08:43:14.422Z,13.49
2023-04-08T08:43:57.115Z,13.43
2023-04-08T08:44:38.756Z,13.33
2023-04-08T08:45:21.045Z,13.20
2023-04-08T08:46:03.330Z,13.08
2023-04-08T08:46:46.675Z,13.14
2023-04-08T08:47:28.364Z,13.17
2023-04-08T08:48:10.112Z,13.04
2023-04-08T08:48:51.725Z,13.08
2023-04-08T08:49:33.396Z,13.06
2023-04-08T08:50:15.591Z,13.15
2023-04-08T08:50:57.756Z,13.24
2023-04-08T08:51:40.585Z,13.35
2023-04-08T08:52:22.263Z,13.53
2023-04-08T08:53:03.874Z,13.65
2023-04-08T08:53:45.716Z,13.77
2023-04-08T08:54:27.880Z,13.96
2023-04-08T08:55:27.690Z,14.14
2023-04-08T08:56:17.777Z,14.09
2023-04-08T08:57:00.366Z,14.37
2023-04-08T08:57:41.989Z,14.47
2023-04-08T08:58:27.230Z,14.56
2023-04-08T08:59:09.970Z,14.78
2023-04-08T08:59:51.582Z,14.95
2023-04-08T09:00:36.412Z,15.03
2023-04-08T09:01:32.335Z,15.06
2023-04-08T09:02:29.031Z,15.28
2023-04-08T09:03:29.965Z,15.51
2023-04-08T09:04:18.319Z,15.53
2023-04-08T09:05:05.027Z,15.69
2023-04-08T09:05:51.755Z,15.70
2023-04-08T09:06:33.525Z,15.70
2023-04-08T09:07:15.310Z,15.54
2023-04-08T09:07:57.163Z,15.70
2023-04-08T09:08:39.033Z,15.66
2023-04-08T09:09:20.699Z,15.82
2023-04-08T09:10:03.606Z,15.89
2023-04-08T09:10:45.226Z,15.98
2023-04-08T09:11:26.786Z,15.82
2023-04-08T09:12:08.840Z,15.59
2023-04-08T09:12:56.152Z,15.55
2023-04-08T09:13:37.821Z,15.46
2023-04-08T09:14:26.147Z,15.26
2023-04-08T09:15:09.287Z,15.06
2023-04-08T09:16:09.199Z,14.87
2023-04-08T09:16:53.334Z,15.01
2023-04-08T09:17:37.789Z,15.12
2023-04-08T09:18:26.223Z,15.05
2023-04-08T09:19:10.550Z,14.99
2023-04-08T09:20:11.578Z,14.95
2023-04-08T09:20:53.701Z,14.94
2023-04-08T09:21:35.850Z,14.68
2023-04-08T09:22:17.458Z,14.56
2023-04-08T09:23:02.691Z,14.46
2023-04-08T09:23:52.356Z,14.51
2023-04-08T09:24:35.086Z,14.54
2023-04-08T09:25:27.380Z,14.41
2023-04-08T09:26:10.463Z,14.40